Time;durP1;ratioP1;P1;durP2;ratioP2;P2;SDS_P1;SDS_P2;PMS_P1;PMS_P2;Temp;Humidity;BMP_temperature;BMP_pressure;BME280_temperature;BME280_humidity;BME280_pressure;Samples;Min_cycle;Max_cycle;Signal;HPM_P1;HPM_P2
2023/09/24 00:00:59;;;;;;;20.10;3.10;;;;;;;;;;5067711;28;20408;-80
2023/09/24 00:03:26;;;;;;;19.13;3.85;;;;;;;;;;5077233;28;20744;-80
2023/09/24 00:05:53;;;;;;;16.60;3.25;;;;;;;;;;5077989;28;20402;-80
2023/09/24 00:08:20;;;;;;;20.17;4.88;;;;;;;;;;5061610;28;20411;-80
2023/09/24 00:10:50;;;;;;;22.27;4.78;;;;;;;;;;5070789;28;20406;-80
2023/09/24 00:13:17;;;;;;;21.67;3.83;;;;;;;;;;5080345;28;20506;-81
2023/09/24 00:15:43;;;;;;;20.77;5.33;;;;;;;;;;5068598;28;20494;-80
2023/09/24 00:18:11;;;;;;;19.33;5.00;;;;;;;;;;5067974;28;20472;-80
2023/09/24 00:20:39;;;;;;;19.40;4.35;;;;;;;;;;5065118;28;20399;-81
2023/09/24 00:23:05;;;;;;;18.60;4.20;;;;;;;;;;5069296;28;20426;-79
2023/09/24 00:25:32;;;;;;;19.05;4.43;;;;;;;;;;5072526;28;20904;-81
2023/09/24 00:27:59;;;;;;;20.42;4.93;;;;;;;;;;5076867;28;20407;-80
2023/09/24 00:30:25;;;;;;;22.08;5.00;;;;;;;;;;5073908;28;20403;-81
2023/09/24 00:32:55;;;;;;;20.20;4.70;;;;;;;;;;5071281;28;20413;-79
2023/09/24 00:35:23;;;;;;;18.75;4.75;;;;;;;;;;5060960;28;20415;-80
2023/09/24 00:37:50;;;;;;;20.53;5.17;;;;;;;;;;5083949;28;20408;-81
2023/09/24 00:40:18;;;;;;;19.23;4.80;;;;;;;;;;5061716;28;20875;-80
2023/09/24 00:42:45;;;;;;;20.52;4.53;;;;;;;;;;5077001;28;20927;-81
2023/09/24 00:45:11;;;;;;;19.42;4.50;;;;;;;;;;5067501;28;20409;-80
2023/09/24 00:47:43;;;;;;;20.33;4.65;;;;;;;;;;5072642;28;20408;-80
2023/09/24 00:50:10;;;;;;;18.67;4.83;;;;;;;;;;5070194;28;20897;-80
2023/09/24 00:52:38;;;;;;;21.77;4.57;;;;;;;;;;5069679;28;20983;-81
2023/09/24 00:55:08;;;;;;;20.05;4.28;;;;;;;;;;5073624;28;20430;-80
2023/09/24 00:57:35;;;;;;;21.92;4.65;;;;;;;;;;5060933;28;20407;-82
2023/09/24 01:00:09;;;;;;;20.00;4.68;;;;;;;;;;5086228;28;20409;-81
2023/09/24 01:02:36;;;;;;;18.25;4.10;;;;;;;;;;5093123;28;21012;-81
2023/09/24 01:05:03;;;;;;;18.10;4.38;;;;;;;;;;5065988;28;20409;-80
2023/09/24 01:07:31;;;;;;;19.70;4.73;;;;;;;;;;5076589;28;20481;-80
2023/09/24 01:09:59;;;;;;;19.88;4.90;;;;;;;;;;5073516;28;20746;-80
2023/09/24 01:12:26;;;;;;;20.45;4.60;;;;;;;;;;5072740;28;20421;-79
2023/09/24 01:14:53;;;;;;;18.83;4.32;;;;;;;;;;5077368;28;20405;-81
2023/09/24 01:17:23;;;;;;;20.63;4.80;;;;;;;;;;5084061;28;20410;-80
2023/09/24 01:19:51;;;;;;;22.67;5.10;;;;;;;;;;5080365;28;20504;-81
2023/09/24 01:22:19;;;;;;;20.45;4.95;;;;;;;;;;5070761;28;20866;-79
2023/09/24 01:24:46;;;;;;;22.27;5.50;;;;;;;;;;5061172;28;20405;-81
2023/09/24 01:27:13;;;;;;;21.25;5.30;;;;;;;;;;5080572;28;20395;-80
2023/09/24 01:29:40;;;;;;;20.35;4.80;;;;;;;;;;5082226;28;20389;-81
2023/09/24 01:32:08;;;;;;;18.02;4.90;;;;;;;;;;5074783;28;20494;-80
2023/09/24 01:34:35;;;;;;;19.25;4.50;;;;;;;;;;5067766;28;20413;-79
2023/09/24 01:37:08;;;;;;;19.25;4.30;;;;;;;;;;5079020;28;20411;-81
2023/09/24 01:39:37;;;;;;;19.50;4.30;;;;;;;;;;5083428;28;20414;-79
2023/09/24 01:42:05;;;;;;;23.25;5.00;;;;;;;;;;5079727;28;20503;-81
2023/09/24 01:44:34;;;;;;;19.13;4.45;;;;;;;;;;5069589;28;20405;-79
2023/09/24 01:47:03;;;;;;;17.33;3.40;;;;;;;;;;5073506;28;20402;-79
2023/09/24 01:49:31;;;;;;;17.30;4.10;;;;;;;;;;5078303;28;20398;-81
2023/09/24 01:51:58;;;;;;;19.13;3.75;;;;;;;;;;5084521;28;20422;-82
2023/09/24 01:54:25;;;;;;;19.70;4.10;;;;;;;;;;5079948;28;20473;-81
2023/09/24 01:56:54;;;;;;;17.77;3.58;;;;;;;;;;5070015;28;20449;-80
2023/09/24 01:59:21;;;;;;;17.70;3.30;;;;;;;;;;5075343;28;20405;-80
2023/09/24 02:01:48;;;;;;;18.17;3.15;;;;;;;;;;5083058;28;20446;-81
2023/09/24 02:04:15;;;;;;;17.55;2.90;;;;;;;;;;5062170;28;20980;-80
2023/09/24 02:06:42;;;;;;;19.23;3.20;;;;;;;;;;5075202;28;20437;-81
2023/09/24 02:09:08;;;;;;;17.00;3.13;;;;;;;;;;5067296;28;20410;-80
2023/09/24 02:11:35;;;;;;;17.25;2.70;;;;;;;;;;5070840;28;20445;-81
2023/09/24 02:14:04;;;;;;;17.02;2.97;;;;;;;;;;5067243;28;20933;-82
2023/09/24 02:16:31;;;;;;;18.40;2.92;;;;;;;;;;5066575;28;20409;-80
2023/09/24 02:18:58;;;;;;;16.00;2.40;;;;;;;;;;5065232;28;20404;-80
2023/09/24 02:21:24;;;;;;;18.23;2.95;;;;;;;;;;5083395;28;20501;-80
2023/09/24 02:23:54;;;;;;;16.10;2.88;;;;;;;;;;5065207;28;20416;-81
2023/09/24 02:26:20;;;;;;;20.48;3.20;;;;;;;;;;5075601;28;20875;-82
2023/09/24 02:28:47;;;;;;;16.65;2.90;;;;;;;;;;5077847;28;20402;-78
2023/09/24 02:31:15;;;;;;;16.80;2.90;;;;;;;;;;5070159;28;20414;-81
2023/09/24 02:33:41;;;;;;;18.90;3.25;;;;;;;;;;5063692;28;21065;-79
2023/09/24 02:36:08;;;;;;;16.90;2.70;;;;;;;;;;5075170;28;20411;-80
2023/09/24 02:38:35;;;;;;;18.10;3.10;;;;;;;;;;5062363;28;20421;-81
2023/09/24 02:41:02;;;;;;;19.42;3.25;;;;;;;;;;5081433;28;20409;-80
2023/09/24 02:43:32;;;;;;;18.35;2.92;;;;;;;;;;5071664;28;20438;-80
2023/09/24 02:45:58;;;;;;;16.20;2.95;;;;;;;;;;5067347;28;20407;-81
2023/09/24 02:48:27;;;;;;;16.48;2.83;;;;;;;;;;5072771;28;20453;-81
2023/09/24 02:50:54;;;;;;;17.85;2.70;;;;;;;;;;5068194;28;20434;-81
2023/09/24 02:53:21;;;;;;;18.52;2.60;;;;;;;;;;5076758;28;20482;-80
2023/09/24 02:55:48;;;;;;;17.70;2.40;;;;;;;;;;5069413;28;20401;-79
2023/09/24 02:58:15;;;;;;;15.52;2.22;;;;;;;;;;5072597;28;20416;-81
2023/09/24 03:00:41;;;;;;;18.40;2.70;;;;;;;;;;5079901;28;20429;-77
2023/09/24 03:03:09;;;;;;;16.88;2.70;;;;;;;;;;5078983;28;20879;-78
2023/09/24 03:05:38;;;;;;;17.08;2.70;;;;;;;;;;5082878;28;20408;-80
2023/09/24 03:08:05;;;;;;;17.10;2.97;;;;;;;;;;5073889;28;20419;-79
2023/09/24 03:10:33;;;;;;;17.50;2.90;;;;;;;;;;5058273;28;20878;-80
2023/09/24 03:13:00;;;;;;;17.30;2.60;;;;;;;;;;5077331;28;20421;-79
2023/09/24 03:15:27;;;;;;;17.73;2.53;;;;;;;;;;5080699;28;20434;-77
2023/09/24 03:17:53;;;;;;;15.68;2.70;;;;;;;;;;5070071;28;20480;-79
2023/09/24 03:20:20;;;;;;;17.50;2.70;;;;;;;;;;5065831;28;20469;-78
2023/09/24 03:22:50;;;;;;;18.58;3.17;;;;;;;;;;5072105;28;20730;-78
2023/09/24 03:25:17;;;;;;;17.20;2.55;;;;;;;;;;5078462;28;20417;-79
2023/09/24 03:27:45;;;;;;;16.67;2.50;;;;;;;;;;5077810;28;20425;-79
2023/09/24 03:30:14;;;;;;;16.47;2.50;;;;;;;;;;5071667;28;20465;-79
2023/09/24 03:32:41;;;;;;;16.75;2.70;;;;;;;;;;5068843;28;20426;-79
2023/09/24 03:35:09;;;;;;;15.90;2.60;;;;;;;;;;5076334;28;20423;-80
2023/09/24 03:37:40;;;;;;;16.40;2.65;;;;;;;;;;5072405;28;20397;-79
2023/09/24 03:40:11;;;;;;;18.73;2.85;;;;;;;;;;5075478;28;20416;-79
2023/09/24 03:42:38;;;;;;;16.30;2.70;;;;;;;;;;5072636;28;20445;-79
2023/09/24 03:45:05;;;;;;;16.35;2.80;;;;;;;;;;5072720;28;20880;-81
2023/09/24 03:47:31;;;;;;;17.13;2.50;;;;;;;;;;5071854;28;20804;-79
2023/09/24 03:49:58;;;;;;;20.33;3.03;;;;;;;;;;5069867;28;20491;-78
2023/09/24 03:52:26;;;;;;;16.92;2.70;;;;;;;;;;5076266;28;20811;-80
2023/09/24 03:54:52;;;;;;;15.93;2.30;;;;;;;;;;5071857;28;20476;-77
2023/09/24 03:57:20;;;;;;;19.70;3.05;;;;;;;;;;5061109;28;20411;-78
2023/09/24 03:59:47;;;;;;;17.15;2.85;;;;;;;;;;5064738;28;20475;-77
2023/09/24 04:02:14;;;;;;;19.52;2.67;;;;;;;;;;5071699;28;20410;-78
2023/09/24 04:04:42;;;;;;;15.60;2.50;;;;;;;;;;5076143;28;20778;-79
2023/09/24 04:07:09;;;;;;;16.05;2.33;;;;;;;;;;5070403;28;20412;-80
2023/09/24 04:09:36;;;;;;;16.60;2.67;;;;;;;;;;5081745;28;20402;-75
2023/09/24 04:12:04;;;;;;;16.10;2.70;;;;;;;;;;5063776;28;20437;-77
2023/09/24 04:14:32;;;;;;;17.40;2.42;;;;;;;;;;5080034;28;20820;-78
2023/09/24 04:16:59;;;;;;;17.80;2.75;;;;;;;;;;5074667;28;20407;-78
2023/09/24 04:19:26;;;;;;;21.13;2.70;;;;;;;;;;5079779;28;20768;-77
2023/09/24 04:21:52;;;;;;;16.75;2.60;;;;;;;;;;5073460;28;20405;-78
2023/09/24 04:24:20;;;;;;;16.73;2.65;;;;;;;;;;5068447;28;20457;-77
2023/09/24 04:26:47;;;;;;;17.27;2.33;;;;;;;;;;5079243;28;20421;-76
2023/09/24 04:29:17;;;;;;;15.50;2.58;;;;;;;;;;5069258;28;20408;-77
2023/09/24 04:31:45;;;;;;;17.53;2.20;;;;;;;;;;5072646;28;20410;-78
2023/09/24 04:34:12;;;;;;;17.50;2.50;;;;;;;;;;5075551;28;20453;-77
2023/09/24 04:36:40;;;;;;;16.20;2.50;;;;;;;;;;5068387;28;21030;-77
2023/09/24 04:39:12;;;;;;;15.20;2.50;;;;;;;;;;5077249;28;20396;-78
2023/09/24 04:41:42;;;;;;;17.13;2.60;;;;;;;;;;5078058;28;20402;-78
2023/09/24 04:44:09;;;;;;;17.63;2.63;;;;;;;;;;5063544;28;20474;-77
2023/09/24 04:46:35;;;;;;;16.58;2.55;;;;;;;;;;5074940;28;20982;-77
2023/09/24 04:49:04;;;;;;;16.63;2.53;;;;;;;;;;5074590;28;20925;-75
2023/09/24 04:51:32;;;;;;;17.30;2.50;;;;;;;;;;5088857;28;20402;-76
2023/09/24 04:54:01;;;;;;;16.35;2.53;;;;;;;;;;5070394;28;20417;-75
2023/09/24 04:56:28;;;;;;;17.90;2.42;;;;;;;;;;5068376;28;20897;-77
2023/09/24 04:58:55;;;;;;;16.88;2.63;;;;;;;;;;5060714;28;20436;-75
2023/09/24 05:01:22;;;;;;;15.90;2.53;;;;;;;;;;5075483;28;20406;-75
2023/09/24 05:03:50;;;;;;;16.27;2.75;;;;;;;;;;5067309;28;20455;-76
2023/09/24 05:06:18;;;;;;;17.13;2.40;;;;;;;;;;5084048;28;20471;-75
2023/09/24 05:08:45;;;;;;;16.33;2.67;;;;;;;;;;5075158;28;20419;-75
2023/09/24 05:11:12;;;;;;;19.38;2.65;;;;;;;;;;5063841;28;20945;-76
2023/09/24 05:13:40;;;;;;;17.70;3.30;;;;;;;;;;5076835;28;20418;-75
2023/09/24 05:16:07;;;;;;;17.70;2.80;;;;;;;;;;5059039;28;20481;-76
2023/09/24 05:18:34;;;;;;;18.93;2.80;;;;;;;;;;5058846;28;20515;-76
2023/09/24 05:21:03;;;;;;;21.55;3.20;;;;;;;;;;5067689;28;20451;-75
2023/09/24 05:23:31;;;;;;;19.38;3.65;;;;;;;;;;5075055;28;20425;-75
2023/09/24 05:25:59;;;;;;;16.50;3.10;;;;;;;;;;5077804;28;20410;-75
2023/09/24 05:28:25;;;;;;;19.92;4.10;;;;;;;;;;5057216;28;20419;-74
2023/09/24 05:30:52;;;;;;;16.88;3.50;;;;;;;;;;5073131;28;20447;-76
2023/09/24 05:33:20;;;;;;;21.65;4.30;;;;;;;;;;5077970;28;20429;-75
2023/09/24 05:35:50;;;;;;;20.60;3.70;;;;;;;;;;5076830;28;20772;-77
2023/09/24 05:38:18;;;;;;;18.92;4.30;;;;;;;;;;5064151;28;20459;-77
2023/09/24 05:40:46;;;;;;;20.00;4.43;;;;;;;;;;5075124;28;20413;-76
2023/09/24 05:43:12;;;;;;;19.73;3.55;;;;;;;;;;5074584;28;20435;-75
2023/09/24 05:45:43;;;;;;;22.13;3.50;;;;;;;;;;5072970;28;20498;-77
2023/09/24 05:48:10;;;;;;;20.30;3.93;;;;;;;;;;5070395;28;20501;-74
2023/09/24 05:50:37;;;;;;;20.10;4.10;;;;;;;;;;5084142;28;20455;-75
2023/09/24 05:53:03;;;;;;;18.10;4.00;;;;;;;;;;5066003;28;21032;-77
2023/09/24 05:55:31;;;;;;;20.90;3.85;;;;;;;;;;5078836;28;20748;-74
2023/09/24 05:57:59;;;;;;;19.55;4.30;;;;;;;;;;5073968;28;20439;-76
2023/09/24 06:00:28;;;;;;;21.10;3.95;;;;;;;;;;5074802;28;20401;-74
2023/09/24 06:02:55;;;;;;;18.80;4.05;;;;;;;;;;5072331;28;20854;-75
2023/09/24 06:05:22;;;;;;;18.38;3.30;;;;;;;;;;5073826;28;20964;-74
2023/09/24 06:07:48;;;;;;;20.50;4.00;;;;;;;;;;5075340;28;20428;-76
2023/09/24 06:10:15;;;;;;;19.60;3.85;;;;;;;;;;5077784;28;20404;-78
2023/09/24 06:12:42;;;;;;;17.52;3.67;;;;;;;;;;5086433;28;20810;-74
2023/09/24 06:15:10;;;;;;;18.50;4.15;;;;;;;;;;5073279;28;20418;-75
2023/09/24 06:17:40;;;;;;;17.05;3.58;;;;;;;;;;5074117;28;20880;-75
2023/09/24 06:20:08;;;;;;;17.80;3.40;;;;;;;;;;5061685;28;20392;-73
2023/09/24 06:22:35;;;;;;;19.40;3.60;;;;;;;;;;5076917;28;20408;-76
2023/09/24 06:25:02;;;;;;;17.30;3.50;;;;;;;;;;5078124;28;20429;-76
2023/09/24 06:27:29;;;;;;;18.05;3.30;;;;;;;;;;5079814;28;20434;-75
2023/09/24 06:29:55;;;;;;;16.83;3.35;;;;;;;;;;5073658;28;20496;-74
2023/09/24 06:32:23;;;;;;;19.38;3.47;;;;;;;;;;5065771;28;20401;-75
2023/09/24 06:34:50;;;;;;;18.33;3.40;;;;;;;;;;5076972;28;20424;-76
2023/09/24 06:37:16;;;;;;;16.10;3.00;;;;;;;;;;5088994;28;20404;-75
2023/09/24 06:39:44;;;;;;;17.90;3.40;;;;;;;;;;5077673;28;20502;-75
2023/09/24 06:42:10;;;;;;;17.70;3.37;;;;;;;;;;5068750;28;20490;-75
2023/09/24 06:44:37;;;;;;;17.87;3.20;;;;;;;;;;5073166;28;20488;-76
2023/09/24 06:47:03;;;;;;;18.48;3.40;;;;;;;;;;5080761;28;20470;-75
2023/09/24 06:49:32;;;;;;;15.90;2.90;;;;;;;;;;5085063;28;20833;-74
2023/09/24 06:51:58;;;;;;;16.33;3.00;;;;;;;;;;5067724;28;20426;-75
2023/09/24 06:54:25;;;;;;;18.40;2.67;;;;;;;;;;5073720;28;20428;-74
2023/09/24 06:56:52;;;;;;;15.48;2.40;;;;;;;;;;5080084;28;20450;-74
2023/09/24 06:59:19;;;;;;;18.42;2.80;;;;;;;;;;5086482;28;20943;-74
2023/09/24 07:01:45;;;;;;;16.25;2.70;;;;;;;;;;5070947;28;20457;-74
2023/09/24 07:04:12;;;;;;;17.05;2.80;;;;;;;;;;5055749;28;20908;-74
2023/09/24 07:06:40;;;;;;;16.73;2.37;;;;;;;;;;5076647;28;20420;-75
2023/09/24 07:09:07;;;;;;;21.87;2.70;;;;;;;;;;5082080;28;20414;-76
2023/09/24 07:11:36;;;;;;;16.53;2.73;;;;;;;;;;5079843;28;20410;-76
2023/09/24 07:14:06;;;;;;;16.15;2.30;;;;;;;;;;5079241;28;20417;-73
2023/09/24 07:16:33;;;;;;;16.50;2.60;;;;;;;;;;5067496;28;20801;-73
2023/09/24 07:18:59;;;;;;;15.93;2.90;;;;;;;;;;5064822;28;20479;-75
2023/09/24 07:21:28;;;;;;;16.15;2.97;;;;;;;;;;5074521;28;20441;-76
2023/09/24 07:24:04;;;;;;;15.63;2.70;;;;;;;;;;5072000;28;20472;-75
2023/09/24 07:26:31;;;;;;;17.83;2.70;;;;;;;;;;5061983;28;20412;-76
2023/09/24 07:28:59;;;;;;;16.75;2.55;;;;;;;;;;5076628;28;20414;-76
2023/09/24 07:31:26;;;;;;;16.13;2.65;;;;;;;;;;5078621;28;20414;-75
2023/09/24 07:33:57;;;;;;;15.80;2.70;;;;;;;;;;5073779;28;20818;-75
2023/09/24 07:36:23;;;;;;;17.25;2.78;;;;;;;;;;5075606;28;20405;-75
2023/09/24 07:38:53;;;;;;;16.50;2.60;;;;;;;;;;5075752;28;20447;-75
2023/09/24 07:41:21;;;;;;;15.85;2.33;;;;;;;;;;5075905;28;20891;-76
2023/09/24 07:43:48;;;;;;;15.50;2.40;;;;;;;;;;5074896;28;20841;-77
2023/09/24 07:46:16;;;;;;;17.10;2.90;;;;;;;;;;5073063;28;20477;-75
2023/09/24 07:48:43;;;;;;;17.30;2.63;;;;;;;;;;5078295;28;20489;-76
2023/09/24 07:51:10;;;;;;;17.23;2.55;;;;;;;;;;5067887;28;20405;-75
2023/09/24 07:53:37;;;;;;;16.00;2.20;;;;;;;;;;5066220;28;20768;-76
2023/09/24 07:56:09;;;;;;;15.95;2.30;;;;;;;;;;5079210;28;20437;-75
2023/09/24 07:58:37;;;;;;;16.42;2.22;;;;;;;;;;5075529;28;20414;-75
2023/09/24 08:01:04;;;;;;;18.52;2.30;;;;;;;;;;5076661;28;20416;-77
2023/09/24 08:03:31;;;;;;;16.75;2.60;;;;;;;;;;5072922;28;20447;-77
2023/09/24 08:05:58;;;;;;;18.10;2.10;;;;;;;;;;5061290;28;20424;-75
2023/09/24 08:08:25;;;;;;;16.70;2.05;;;;;;;;;;5073918;28;20823;-77
2023/09/24 08:11:12;;;;;;;15.77;2.22;;;;;;;;;;5057915;28;20521;-78
2023/09/24 08:13:40;;;;;;;17.30;2.22;;;;;;;;;;5078155;28;20425;-77
2023/09/24 08:16:07;;;;;;;15.90;1.90;;;;;;;;;;5068991;28;20843;-78
2023/09/24 08:18:34;;;;;;;16.33;2.08;;;;;;;;;;5075216;28;20414;-77
2023/09/24 08:21:01;;;;;;;16.95;1.90;;;;;;;;;;5078320;28;20410;-78
2023/09/24 08:23:28;;;;;;;16.85;2.20;;;;;;;;;;5081422;28;20505;-77
2023/09/24 08:25:54;;;;;;;15.60;2.10;;;;;;;;;;5069126;28;21413;-75
2023/09/24 08:28:21;;;;;;;16.10;2.60;;;;;;;;;;5072834;28;20812;-76
2023/09/24 08:30:49;;;;;;;19.70;1.88;;;;;;;;;;5073185;28;20416;-78
2023/09/24 08:33:16;;;;;;;16.30;1.80;;;;;;;;;;5066727;28;20432;-80
2023/09/24 08:35:43;;;;;;;16.25;2.05;;;;;;;;;;5077893;28;20502;-79
2023/09/24 08:38:10;;;;;;;17.25;2.40;;;;;;;;;;5068422;28;20491;-76
2023/09/24 08:40:38;;;;;;;15.60;1.63;;;;;;;;;;5068709;28;20412;-77
2023/09/24 08:43:09;;;;;;;16.30;1.90;;;;;;;;;;5074674;28;20965;-79
2023/09/24 08:45:37;;;;;;;14.70;1.80;;;;;;;;;;5062318;28;20410;-81
2023/09/24 08:48:09;;;;;;;20.52;1.92;;;;;;;;;;5060040;28;20475;-79
2023/09/24 08:50:36;;;;;;;15.80;1.80;;;;;;;;;;5068774;28;20414;-81
2023/09/24 08:53:07;;;;;;;15.83;1.80;;;;;;;;;;5067091;28;20493;-80
2023/09/24 08:55:33;;;;;;;15.90;1.77;;;;;;;;;;5075198;28;20929;-78
2023/09/24 08:58:00;;;;;;;16.83;2.30;;;;;;;;;;5069641;28;20786;-81
2023/09/24 09:00:27;;;;;;;14.43;1.50;;;;;;;;;;5077161;28;20943;-80
2023/09/24 09:02:54;;;;;;;15.10;1.90;;;;;;;;;;5070226;28;20411;-80
2023/09/24 09:05:23;;;;;;;15.53;1.80;;;;;;;;;;5073116;28;20403;-79
2023/09/24 09:07:54;;;;;;;16.27;1.60;;;;;;;;;;5071594;28;20837;-79
2023/09/24 09:10:22;;;;;;;16.30;1.50;;;;;;;;;;5075236;28;20862;-82
2023/09/24 09:12:50;;;;;;;16.90;1.52;;;;;;;;;;5065719;28;20889;-80
2023/09/24 09:15:17;;;;;;;15.85;1.50;;;;;;;;;;5072505;28;20464;-80
2023/09/24 09:17:43;;;;;;;17.50;1.80;;;;;;;;;;5066163;28;20403;-81
2023/09/24 09:20:11;;;;;;;14.70;1.50;;;;;;;;;;5066271;28;20491;-81
2023/09/24 09:22:45;;;;;;;16.35;1.92;;;;;;;;;;5075262;28;20422;-80
2023/09/24 09:25:11;;;;;;;16.30;1.67;;;;;;;;;;5076395;28;20494;-81
2023/09/24 09:27:43;;;;;;;16.40;1.85;;;;;;;;;;5076989;28;20415;-80
2023/09/24 09:30:12;;;;;;;15.90;1.60;;;;;;;;;;5077607;28;20402;-81
2023/09/24 09:32:39;;;;;;;15.60;1.70;;;;;;;;;;5077982;28;20432;-81
2023/09/24 09:35:06;;;;;;;16.02;1.80;;;;;;;;;;5083297;28;20414;-81
2023/09/24 09:37:33;;;;;;;17.88;2.28;;;;;;;;;;5070990;28;20859;-81
2023/09/24 09:40:03;;;;;;;16.40;1.90;;;;;;;;;;5060770;28;20417;-82
2023/09/24 09:42:31;;;;;;;16.00;1.50;;;;;;;;;;5071146;28;20401;-80
2023/09/24 09:45:01;;;;;;;14.90;1.67;;;;;;;;;;5076472;28;20762;-85
2023/09/24 09:47:29;;;;;;;15.80;1.40;;;;;;;;;;5081734;28;20900;-82
2023/09/24 09:49:58;;;;;;;16.13;1.50;;;;;;;;;;5076106;28;20407;-82
2023/09/24 09:52:28;;;;;;;15.25;1.90;;;;;;;;;;5060232;28;20400;-82
2023/09/24 09:54:56;;;;;;;15.10;1.50;;;;;;;;;;5083080;28;20453;-80
2023/09/24 09:57:24;;;;;;;17.10;1.50;;;;;;;;;;5083597;28;20446;-82
2023/09/24 09:59:52;;;;;;;15.88;1.58;;;;;;;;;;5087958;28;20411;-83
2023/09/24 10:02:19;;;;;;;14.25;1.48;;;;;;;;;;5079660;28;20461;-79
2023/09/24 10:04:47;;;;;;;16.10;1.50;;;;;;;;;;5081961;28;20413;-82
2023/09/24 10:07:14;;;;;;;22.25;2.03;;;;;;;;;;5084120;28;20420;-84
2023/09/24 10:09:40;;;;;;;15.43;1.30;;;;;;;;;;5093006;28;20460;-81
2023/09/24 10:12:07;;;;;;;15.00;1.20;;;;;;;;;;5090171;28;20405;-81
2023/09/24 10:14:36;;;;;;;15.80;1.80;;;;;;;;;;5084348;28;20489;-82
2023/09/24 10:17:19;;;;;;;14.40;1.10;;;;;;;;;;5085578;28;20443;-81
2023/09/24 10:19:47;;;;;;;14.40;1.20;;;;;;;;;;5085990;28;20514;-80
2023/09/24 10:22:24;;;;;;;15.15;1.50;;;;;;;;;;5089932;28;20507;-81
2023/09/24 10:24:51;;;;;;;16.08;1.92;;;;;;;;;;5083678;28;20393;-82
2023/09/24 10:27:25;;;;;;;16.08;1.30;;;;;;;;;;5063457;28;20433;-82
2023/09/24 10:30:04;;;;;;;14.60;1.40;;;;;;;;;;5082469;28;20401;-82
2023/09/24 10:32:41;;;;;;;14.93;1.40;;;;;;;;;;5064669;28;20435;-83
2023/09/24 10:35:09;;;;;;;14.57;1.38;;;;;;;;;;5087294;28;20419;-82
2023/09/24 10:37:55;;;;;;;15.45;1.40;;;;;;;;;;5081594;28;20509;-80
2023/09/24 10:40:24;;;;;;;15.43;1.40;;;;;;;;;;5083298;28;20436;-78
2023/09/24 10:43:05;;;;;;;15.40;1.40;;;;;;;;;;5074050;28;20407;-81
2023/09/24 10:45:33;;;;;;;15.43;1.40;;;;;;;;;;5078515;28;20404;-84
2023/09/24 10:48:02;;;;;;;14.20;1.20;;;;;;;;;;5077316;28;20414;-83
2023/09/24 10:50:31;;;;;;;14.55;1.15;;;;;;;;;;5078103;28;20493;-84
2023/09/24 10:52:59;;;;;;;14.30;1.30;;;;;;;;;;5086787;28;20512;-83
2023/09/24 10:55:34;;;;;;;14.82;1.23;;;;;;;;;;5075070;28;20471;-81
2023/09/24 10:58:03;;;;;;;15.30;1.50;;;;;;;;;;5077878;28;20990;-82
2023/09/24 11:00:30;;;;;;;13.82;1.20;;;;;;;;;;5076566;28;20436;-80
2023/09/24 11:03:00;;;;;;;14.80;1.30;;;;;;;;;;5078212;28;20461;-82
2023/09/24 11:05:27;;;;;;;16.80;1.65;;;;;;;;;;5073608;28;20429;-82
2023/09/24 11:07:55;;;;;;;14.50;1.10;;;;;;;;;;5081172;28;20419;-82
2023/09/24 11:10:25;;;;;;;16.50;1.50;;;;;;;;;;5073677;28;20419;-80
2023/09/24 11:12:54;;;;;;;14.20;1.33;;;;;;;;;;5068437;28;20490;-81
2023/09/24 11:15:22;;;;;;;16.50;2.10;;;;;;;;;;5077824;28;20413;-82
2023/09/24 11:17:50;;;;;;;15.60;2.00;;;;;;;;;;5077532;28;20900;-80
2023/09/24 11:20:20;;;;;;;14.98;1.80;;;;;;;;;;5075667;28;20411;-81
2023/09/24 11:22:54;;;;;;;15.27;1.13;;;;;;;;;;5075840;28;20561;-81
2023/09/24 11:25:21;;;;;;;16.70;1.40;;;;;;;;;;5057582;28;20428;-82
2023/09/24 11:27:49;;;;;;;14.98;1.50;;;;;;;;;;5072850;28;20411;-81
2023/09/24 11:30:16;;;;;;;14.77;1.25;;;;;;;;;;5074550;28;20420;-80
2023/09/24 11:32:43;;;;;;;14.67;1.20;;;;;;;;;;5078786;28;20402;-82
2023/09/24 11:35:11;;;;;;;13.98;1.33;;;;;;;;;;5086755;28;20453;-84
2023/09/24 11:37:48;;;;;;;16.58;1.30;;;;;;;;;;5071234;28;20449;-81
2023/09/24 11:40:22;;;;;;;14.50;1.20;;;;;;;;;;5061821;28;20460;-82
2023/09/24 11:42:49;;;;;;;16.15;1.30;;;;;;;;;;5089349;28;20500;-82
2023/09/24 11:45:16;;;;;;;14.90;1.20;;;;;;;;;;5081820;28;20784;-83
2023/09/24 11:47:43;;;;;;;14.10;1.10;;;;;;;;;;5075861;28;20414;-80
2023/09/24 11:50:10;;;;;;;17.30;2.10;;;;;;;;;;5079033;28;20488;-82
2023/09/24 11:52:38;;;;;;;14.10;1.30;;;;;;;;;;5069372;28;20401;-84
2023/09/24 11:55:07;;;;;;;15.20;1.40;;;;;;;;;;5079720;28;20859;-81
2023/09/24 11:57:34;;;;;;;13.98;1.20;;;;;;;;;;5081942;28;20787;-83
2023/09/24 12:00:01;;;;;;;14.95;1.20;;;;;;;;;;5074946;28;20425;-81
2023/09/24 12:02:37;;;;;;;14.82;1.30;;;;;;;;;;5074271;28;20392;-82
2023/09/24 12:05:04;;;;;;;14.10;1.20;;;;;;;;;;5081313;28;20478;-80
2023/09/24 12:07:47;;;;;;;15.15;1.13;;;;;;;;;;5080206;28;20415;-82
2023/09/24 12:10:15;;;;;;;15.68;1.40;;;;;;;;;;5075023;28;20411;-82
2023/09/24 12:12:41;;;;;;;14.83;1.40;;;;;;;;;;5071582;28;20428;-83
2023/09/24 12:15:08;;;;;;;13.90;1.10;;;;;;;;;;5062126;28;20524;-83
2023/09/24 12:17:35;;;;;;;14.98;1.35;;;;;;;;;;5077429;28;20423;-82
2023/09/24 12:20:04;;;;;;;16.00;1.30;;;;;;;;;;5054966;28;20444;-81
2023/09/24 12:22:31;;;;;;;14.32;1.35;;;;;;;;;;5054781;28;20419;-81
2023/09/24 12:24:58;;;;;;;15.00;1.10;;;;;;;;;;5076120;28;20402;-81
2023/09/24 12:27:30;;;;;;;14.77;1.23;;;;;;;;;;5077958;28;20975;-80
2023/09/24 12:29:57;;;;;;;14.20;1.20;;;;;;;;;;5069814;28;20498;-82
2023/09/24 12:32:23;;;;;;;14.65;1.27;;;;;;;;;;5065884;28;20914;-81
2023/09/24 12:34:51;;;;;;;14.88;1.27;;;;;;;;;;5077475;28;20419;-82
2023/09/24 12:37:19;;;;;;;14.80;1.30;;;;;;;;;;5075690;28;20448;-85
2023/09/24 12:39:45;;;;;;;14.18;1.35;;;;;;;;;;5073909;28;20779;-80
2023/09/24 12:42:12;;;;;;;15.40;1.35;;;;;;;;;;5069372;28;20413;-83
2023/09/24 12:44:40;;;;;;;14.50;1.60;;;;;;;;;;5071361;28;20486;-82
2023/09/24 12:47:07;;;;;;;15.05;1.20;;;;;;;;;;5067196;28;20406;-82
2023/09/24 12:49:33;;;;;;;16.30;1.30;;;;;;;;;;5056053;28;20487;-81
2023/09/24 12:52:00;;;;;;;14.07;1.20;;;;;;;;;;5073412;28;20798;-81
2023/09/24 12:54:28;;;;;;;15.15;1.30;;;;;;;;;;5067618;28;20520;-80
2023/09/24 12:56:54;;;;;;;13.85;1.17;;;;;;;;;;5080172;28;20437;-80
2023/09/24 12:59:21;;;;;;;15.30;1.40;;;;;;;;;;5074114;28;20404;-80
2023/09/24 13:01:49;;;;;;;14.18;1.08;;;;;;;;;;5064022;28;20880;-83
2023/09/24 13:04:16;;;;;;;15.80;1.20;;;;;;;;;;5076793;28;20409;-82
2023/09/24 13:06:43;;;;;;;14.07;1.00;;;;;;;;;;5082941;28;20932;-87
2023/09/24 13:09:10;;;;;;;14.20;1.27;;;;;;;;;;5086875;28;20482;-82
2023/09/24 13:11:37;;;;;;;14.82;1.40;;;;;;;;;;5074623;28;20455;-85
2023/09/24 13:14:03;;;;;;;14.60;1.67;;;;;;;;;;5071814;28;20920;-84
2023/09/24 13:16:30;;;;;;;14.38;1.13;;;;;;;;;;5078951;28;20462;-83
2023/09/24 13:18:58;;;;;;;14.35;1.10;;;;;;;;;;5071700;28;20449;-83
2023/09/24 13:21:28;;;;;;;15.10;1.40;;;;;;;;;;5084734;28;20811;-80
2023/09/24 13:23:55;;;;;;;14.45;1.02;;;;;;;;;;5056061;28;20500;-81
2023/09/24 13:26:21;;;;;;;14.75;1.25;;;;;;;;;;5072538;28;20813;-81
2023/09/24 13:28:48;;;;;;;14.10;1.20;;;;;;;;;;5082616;28;20439;-82
2023/09/24 13:31:15;;;;;;;14.00;1.02;;;;;;;;;;5077640;28;20407;-81
2023/09/24 13:33:41;;;;;;;14.70;1.90;;;;;;;;;;5078736;28;20475;-83
2023/09/24 13:36:11;;;;;;;13.90;1.30;;;;;;;;;;5073773;28;20429;-84
2023/09/24 13:38:38;;;;;;;13.98;1.10;;;;;;;;;;5061386;28;20944;-83
2023/09/24 13:41:05;;;;;;;13.90;1.08;;;;;;;;;;5080867;28;20505;-80
2023/09/24 13:43:31;;;;;;;14.82;1.30;;;;;;;;;;5083197;28;20511;-82
2023/09/24 13:45:58;;;;;;;14.00;1.20;;;;;;;;;;5075575;28;20503;-83
2023/09/24 13:48:25;;;;;;;14.00;1.00;;;;;;;;;;5071100;28;20423;-83
2023/09/24 13:50:52;;;;;;;15.00;1.30;;;;;;;;;;5076596;28;20448;-81
2023/09/24 13:53:21;;;;;;;14.23;1.17;;;;;;;;;;5079158;28;20401;-80
2023/09/24 13:55:47;;;;;;;14.02;1.10;;;;;;;;;;5075162;28;20416;-82
2023/09/24 13:58:14;;;;;;;13.82;1.10;;;;;;;;;;5070652;28;20437;-81
2023/09/24 14:00:42;;;;;;;14.97;1.10;;;;;;;;;;5073354;28;20410;-82
2023/09/24 14:03:09;;;;;;;14.73;1.30;;;;;;;;;;5080067;28;20579;-83
2023/09/24 14:05:36;;;;;;;15.38;1.55;;;;;;;;;;5073622;28;20510;-85
2023/09/24 14:13:35;;;;;;;14.40;1.13;;;;;;;;;;5081355;28;20408;-85
2023/09/24 14:16:01;;;;;;;14.00;1.00;;;;;;;;;;5087501;28;20459;-80
2023/09/24 14:18:30;;;;;;;14.70;1.20;;;;;;;;;;5088731;28;20501;-82
2023/09/24 14:20:57;;;;;;;13.60;0.93;;;;;;;;;;5086082;28;20473;-85
2023/09/24 14:23:27;;;;;;;14.43;1.10;;;;;;;;;;5076644;28;20408;-85
2023/09/24 14:25:55;;;;;;;13.70;1.00;;;;;;;;;;5086461;28;20405;-87
2023/09/24 14:28:21;;;;;;;14.18;1.40;;;;;;;;;;5083990;28;20404;-85
2023/09/24 14:30:48;;;;;;;13.80;1.10;;;;;;;;;;5077873;28;20775;-85
2023/09/24 14:33:14;;;;;;;14.00;1.17;;;;;;;;;;5080655;28;20765;-84
2023/09/24 14:35:41;;;;;;;14.48;1.00;;;;;;;;;;5077197;28;20410;-82
2023/09/24 14:38:08;;;;;;;13.90;1.10;;;;;;;;;;5067655;28;20448;-82
2023/09/24 14:40:35;;;;;;;13.90;1.10;;;;;;;;;;5073778;28;20404;-82